Historyczne dane pomiarowe

Dodano dane terminowe – wersja testowa.

Dane z okresu 1951-2019

Wersja bazy: 1.34 [2019-03-16, lista zmian], aktualizacja planowana na 2019-04-15

Dane meteo z obszaru Polski uzyskane na podstawie danych udostępnionych przez Instytut Meteorologii i Gospodarki Wodnej – Państwowy Instytut Badawczy.

 

Wybierz Datę:    

       

TemperaturaWilgotnośćWiatrCiśnienieOpadyŚniegCzas trwania zjawisk
 Stacja t tx tn tng RH VA  wxwx mslp ppp RRR   cm mm wxwxwxwxwxwxwx
1961-01-17 -7.6 -1.9-12.2 -3.5 88.3- 2.3 3.0---- 0.0-- 8---------
1961-01-18-11.6 -7.1-16.5-20.6 78.8- 0.0 2.3---- 0.0-- 8---------
1961-01-19-10.3 -4.1-16.5-20.5 78.8- 0.0 0.0---- 0.0-- 8---------
1961-01-20 -8.2 -1.0-14.0-16.8 81.8- 0.0 0.0---- 0.0-- 8---------
1961-01-21 -9.5 -2.8-15.1-17.7 86.3- 1.3 0.0---- 0.0-- 8---------
1961-01-22 -4.3 -0.5-14.3-16.3 90.5- 7.7 0.7---- 3.7-- 8---------
1961-01-23 -6.3 -1.5-10.1 -1.1 90.8- 7.7 4.7---- 0.2-- 11---------
1961-01-24-12.1 -9.2-14.8-10.9 89.3- 2.7 0.3---- 0.2-- 11---------
1961-01-25-11.0 -7.1-16.3-21.5 86.3- 3.3 7.7---- 0.1-- 11---------
1961-01-26-16.3-10.8-19.3-20.7 90.3- 0.0 1.3---- 0.0-- 11---------
1961-01-27-15.2 -4.8-22.9-26.7 85.8- 0.0 0.3---- 0.0-- 11---------
1961-01-28-11.1 0.5-21.4-24.3 78.3- 3.7 0.0---- 0.0-- 11---------
1961-01-29 3.3 4.7-16.0-19.8 69.5- 5.0 8.7---- 0.0-- 10---------
1961-01-30 5.8 6.8 3.5 1.5 73.8- 7.7 8.7---- 3.4-- 5---------
1961-01-31 5.0 7.0 4.2 2.9 92.0- 7.7 4.0---- 8.5------------
1961-02-01 2.7 4.7 -0.3 -1.5 81.5- 7.3 3.0---- 0.9------------
1961-02-02 1.9 5.6 -0.7 0.4 74.8- 5.3 3.0---- 1.4------------
1961-02-03 0.6 1.3 -0.8 -1.6 91.8- 7.7 3.0---- 0.2-- 2---------
1961-02-04 0.3 2.5 -0.7 -1.4 91.3- 7.3 1.7---- 1.4-- 2---------
1961-02-05 -1.9 1.5 -4.3 -1.2 89.0- 3.7 1.7---- 0.0-- 3---------
1961-02-06 1.5 4.3 -5.8 -7.5 78.8- 7.3 0.7---- 0.0-- 2---------
1961-02-07 4.4 7.4 1.1 -0.6 74.5- 4.0 6.0---- 3.4------------
1961-02-08 1.9 4.8 0.0 1.6 92.0- 5.3 5.0---- 7.3------------
1961-02-09 5.2 8.2 -0.6 -1.6 94.3- 8.0 3.0---- 8.4------------
1961-02-10 2.6 6.5 2.1 2.1 92.3- 8.0 5.0---- 0.0------------
1961-02-11 5.6 7.9 2.0 1.6 85.5- 8.0 5.0---- 3.6------------
1961-02-12 4.6 5.6 3.9 2.4 97.5- 8.0 2.0---- 1.6------------
1961-02-13 4.9 7.9 2.2 1.9 89.8- 7.7 1.0---- 0.2------------
1961-02-14 4.3 7.9 2.4 3.2 96.5- 5.3 0.0---- 0.0------------
1961-02-15 5.4 15.0 -1.3 -3.0 81.0- 0.0 1.3---- 0.0------------
182.4 ms

 

Źródłem pochodzenia danych jest Instytut Meteorologii i Gospodarki Wodnej – Państwowy Instytut Badawczy. Dane Instytutu Meteorologii i Gospodarki Wodnej – Państwowego Instytutu Badawczego zostały przetworzone.

Dane źródłowe można odnaleźć na stronie https://dane.imgw.pl